Terminal Aerodrome Forecast
Issued by NWS

Home | Current Version | Previous Version | Graphics & Text | Print | Product List | Glossary On
Versions: 1 2 3 4 5 6 7 8 9 10 11 12 13 14
000
FTUS45 KGGW 232300
TAFSDY
TAF
KSDY 232320Z 2400/2424 13016G24KT P6SM SCT160
     FM240300 11015G25KT P6SM VCTS SCT100CB
     FM241200 13010KT P6SM FEW230
     FM241800 VRB05KT P6SM SCT190
      AMD LTD TO CLD VIS AND WIND=

USA.gov is the U.S. government's official web portal to all federal, state and local government web resources and services.